PAZ weather

La Paz Airport
La Paz, Mendoza Province, Argentina

Public forecast

Using degrees Celsius for public forecast. Weather courtesy of forecast.io.

METAR (pilot weather report)

Report is more than 6 hours old.

Closest report is Brigadier Mayor D Cesar Raul Ojeda Airport, 61.0 nm (112.9 km) E. Retrieved 2019/09/11 13:30 UTC (11 days ago):

SAOU 111330Z 14012KT 2500 BR OVC008 05/04 Q1023 RMK ESTIMATED WIND

TAF (pilot weather forecast)

Forecast is more than 12 hours old.

Closest forecast is Brigadier Mayor D Cesar Raul Ojeda Airport, 61.0 nm (112.9 km) E. Retrieved 2019/08/18 18:03 UTC (1 month ago):

TAF SAOU 181700Z 1818/1918 14005KT 9999 FEW030 SCT060 TX16/1819Z TN03/1910Z BECMG 1902/1905 11010KT 9999 BKN030 SCT070